Time;durP1;ratioP1;P1;durP2;ratioP2;P2;SDS_P1;SDS_P2;PMS_P1;PMS_P2;Temp;Humidity;BMP_temperature;BMP_pressure;BME280_temperature;BME280_humidity;BME280_pressure;Samples;Min_cycle;Max_cycle;Signal;HPM_P1;HPM_P2
2023/04/21 00:02:18;;;;;;;;;;;7.90;99.90;;;;;;5103907;28;19920;-68
2023/04/21 00:04:45;;;;;;;;;;;7.90;99.90;;;;;;5104566;28;19952;-69
2023/04/21 00:07:13;;;;;;;;;;;7.90;99.90;;;;;;5103824;28;20270;-69
2023/04/21 00:09:40;;;;;;;;;;;7.90;99.90;;;;;;5120036;28;19919;-69
2023/04/21 00:12:07;;;;;;;;;;;7.90;99.90;;;;;;5110179;28;19926;-68
2023/04/21 00:14:35;;;;;;;;;;;7.90;99.90;;;;;;5104106;28;20205;-69
2023/04/21 00:17:01;;;;;;;;;;;8.00;99.90;;;;;;5103546;28;19920;-68
2023/04/21 00:19:28;;;;;;;;;;;8.00;99.90;;;;;;5103925;28;20227;-68
2023/04/21 00:21:57;;;;;;;;;;;8.00;99.90;;;;;;5104199;28;19924;-72
2023/04/21 00:24:24;;;;;;;;;;;8.00;99.90;;;;;;5104184;28;19920;-68
2023/04/21 00:26:51;;;;;;;;;;;7.90;99.90;;;;;;5103365;28;19920;-69
2023/04/21 00:29:17;;;;;;;;;;;8.00;99.90;;;;;;5103746;28;20208;-68
2023/04/21 00:31:45;;;;;;;;;;;8.00;99.90;;;;;;5103705;28;19983;-68
2023/04/21 00:34:12;;;;;;;;;;;8.00;99.90;;;;;;5103113;28;19927;-68
2023/04/21 00:36:38;;;;;;;;;;;7.90;99.90;;;;;;5102271;28;19988;-70
2023/04/21 00:39:05;;;;;;;;;;;7.90;99.90;;;;;;5102645;28;19987;-69
2023/04/21 00:41:33;;;;;;;;;;;8.00;99.90;;;;;;5103645;28;19955;-68
2023/04/21 00:44:00;;;;;;;;;;;8.00;99.90;;;;;;5103003;28;19955;-69
2023/04/21 00:46:26;;;;;;;;;;;7.90;99.90;;;;;;5103102;28;19920;-68
2023/04/21 00:48:56;;;;;;;;;;;7.90;99.90;;;;;;5102897;28;20724;-68
2023/04/21 00:51:23;;;;;;;;;;;8.00;99.90;;;;;;5110804;28;19920;-70
2023/04/21 00:53:50;;;;;;;;;;;8.00;99.90;;;;;;5124196;28;20296;-68
2023/04/21 00:56:17;;;;;;;;;;;8.00;99.90;;;;;;5123867;28;19926;-70
2023/04/21 00:58:45;;;;;;;;;;;8.00;99.90;;;;;;5123891;28;19999;-69
2023/04/21 01:01:13;;;;;;;;;;;8.00;99.90;;;;;;5123616;28;19919;-69
2023/04/21 01:03:39;;;;;;;;;;;8.00;99.90;;;;;;5122352;28;19926;-68
2023/04/21 01:06:07;;;;;;;;;;;8.00;99.90;;;;;;5123908;28;20329;-68
2023/04/21 01:08:34;;;;;;;;;;;8.00;99.90;;;;;;5123830;28;19926;-68
2023/04/21 01:11:01;;;;;;;;;;;8.00;99.90;;;;;;5119482;28;19926;-68
2023/04/21 01:13:27;;;;;;;;;;;8.00;99.90;;;;;;5103266;28;19927;-69
2023/04/21 01:15:54;;;;;;;;;;;8.10;99.90;;;;;;5103301;28;19947;-68
2023/04/21 01:18:21;;;;;;;;;;;8.10;99.90;;;;;;5103098;28;20442;-69
2023/04/21 01:20:48;;;;;;;;;;;8.10;99.90;;;;;;5103256;28;19958;-69
2023/04/21 01:23:17;;;;;;;;;;;8.00;99.90;;;;;;5103215;28;19920;-69
2023/04/21 01:25:44;;;;;;;;;;;8.00;99.90;;;;;;5103254;28;19920;-70
2023/04/21 01:28:10;;;;;;;;;;;7.90;99.90;;;;;;5103385;28;19958;-69
2023/04/21 01:30:37;;;;;;;;;;;7.90;99.90;;;;;;5103431;28;19991;-70
2023/04/21 01:33:04;;;;;;;;;;;7.80;99.90;;;;;;5103392;28;20002;-68
2023/04/21 01:35:30;;;;;;;;;;;7.80;99.90;;;;;;5103084;28;20208;-70
2023/04/21 01:37:57;;;;;;;;;;;7.90;99.90;;;;;;5103203;28;19987;-69
2023/04/21 01:40:25;;;;;;;;;;;7.90;99.90;;;;;;5106421;28;20266;-68
2023/04/21 01:42:52;;;;;;;;;;;7.90;99.90;;;;;;5123755;28;19990;-69
2023/04/21 01:45:19;;;;;;;;;;;7.90;99.90;;;;;;5127245;28;20166;-69
2023/04/21 01:47:45;;;;;;;;;;;7.90;99.90;;;;;;5127212;28;19958;-70
2023/04/21 01:50:12;;;;;;;;;;;8.00;99.90;;;;;;5125932;28;19991;-69
2023/04/21 01:52:38;;;;;;;;;;;7.90;99.90;;;;;;5119836;28;19983;-68
2023/04/21 01:55:06;;;;;;;;;;;8.00;99.90;;;;;;5106295;28;20260;-68
2023/04/21 01:57:34;;;;;;;;;;;7.90;99.90;;;;;;5106595;28;19927;-68
2023/04/21 02:00:00;;;;;;;;;;;7.90;99.90;;;;;;5106612;28;20119;-69
2023/04/21 02:02:27;;;;;;;;;;;7.80;99.90;;;;;;5106886;28;19951;-69
2023/04/21 02:04:54;;;;;;;;;;;7.80;99.90;;;;;;5105332;28;19951;-68
2023/04/21 02:07:20;;;;;;;;;;;7.70;99.90;;;;;;5106225;28;19995;-68
2023/04/21 02:09:47;;;;;;;;;;;7.70;99.90;;;;;;5112490;28;19919;-68
2023/04/21 02:12:13;;;;;;;;;;;7.70;99.90;;;;;;5107756;28;19983;-69
2023/04/21 02:14:41;;;;;;;;;;;7.60;99.90;;;;;;5108716;28;19920;-69
2023/04/21 02:17:08;;;;;;;;;;;7.60;99.90;;;;;;5126604;28;19958;-68
2023/04/21 02:19:36;;;;;;;;;;;7.60;99.90;;;;;;5126904;28;19995;-69
2023/04/21 02:22:03;;;;;;;;;;;7.60;99.90;;;;;;5126769;28;19920;-70
2023/04/21 02:24:29;;;;;;;;;;;7.50;99.90;;;;;;5125325;28;19920;-70
2023/04/21 02:26:57;;;;;;;;;;;7.50;99.90;;;;;;5111856;28;19958;-69
2023/04/21 02:29:24;;;;;;;;;;;7.50;99.90;;;;;;5106448;28;19928;-69
2023/04/21 02:31:52;;;;;;;;;;;7.50;99.90;;;;;;5106257;28;19920;-70
2023/04/21 02:34:19;;;;;;;;;;;7.50;99.90;;;;;;5105905;28;19983;-68
2023/04/21 02:36:46;;;;;;;;;;;7.50;99.90;;;;;;5105566;28;19943;-68
2023/04/21 02:39:12;;;;;;;;;;;7.40;99.90;;;;;;5105774;28;19991;-68
2023/04/21 02:41:39;;;;;;;;;;;7.40;99.90;;;;;;5105999;28;19987;-73
2023/04/21 02:44:06;;;;;;;;;;;7.30;99.90;;;;;;5105939;28;19979;-68
2023/04/21 02:46:32;;;;;;;;;;;7.30;99.90;;;;;;5105636;28;19961;-68
2023/04/21 02:49:00;;;;;;;;;;;7.20;99.90;;;;;;5106072;28;19983;-68
2023/04/21 02:51:27;;;;;;;;;;;7.20;99.90;;;;;;5104875;28;20208;-68
2023/04/21 02:53:53;;;;;;;;;;;7.20;99.90;;;;;;5105976;28;19920;-70
2023/04/21 02:56:20;;;;;;;;;;;7.20;99.90;;;;;;5105384;28;19975;-69
2023/04/21 02:58:47;;;;;;;;;;;7.20;99.90;;;;;;5105700;28;19987;-69
2023/04/21 03:01:13;;;;;;;;;;;7.20;99.90;;;;;;5121683;28;19920;-69
2023/04/21 03:03:40;;;;;;;;;;;7.20;99.90;;;;;;5114493;28;19992;-68
2023/04/21 03:06:08;;;;;;;;;;;7.20;99.90;;;;;;5124574;28;19926;-68
2023/04/21 03:08:35;;;;;;;;;;;7.20;99.90;;;;;;5125746;28;19920;-68
2023/04/21 03:11:01;;;;;;;;;;;7.10;99.90;;;;;;5126114;28;19982;-68
2023/04/21 03:13:28;;;;;;;;;;;7.10;99.90;;;;;;5125998;28;19987;-68
2023/04/21 03:15:56;;;;;;;;;;;7.10;99.90;;;;;;5123708;28;19934;-68
2023/04/21 03:18:22;;;;;;;;;;;7.10;99.90;;;;;;5125449;28;20214;-69
2023/04/21 03:20:49;;;;;;;;;;;7.10;99.90;;;;;;5125656;28;19926;-68
2023/04/21 03:23:17;;;;;;;;;;;7.00;99.90;;;;;;5125801;28;19920;-68
2023/04/21 03:25:44;;;;;;;;;;;7.00;99.90;;;;;;5125511;28;19920;-69
2023/04/21 03:28:10;;;;;;;;;;;7.00;99.90;;;;;;5125141;28;20237;-68
2023/04/21 03:30:37;;;;;;;;;;;7.00;99.90;;;;;;5125694;28;20158;-68
2023/04/21 03:33:03;;;;;;;;;;;7.00;99.90;;;;;;5125672;28;19983;-68
2023/04/21 03:35:30;;;;;;;;;;;7.00;99.90;;;;;;5125206;28;20278;-68
2023/04/21 03:37:57;;;;;;;;;;;7.00;99.90;;;;;;5124921;28;19920;-69
2023/04/21 03:40:25;;;;;;;;;;;7.00;99.90;;;;;;5125451;28;20006;-69
2023/04/21 03:42:52;;;;;;;;;;;7.00;99.90;;;;;;5125190;28;19920;-68
2023/04/21 03:45:21;;;;;;;;;;;7.00;99.90;;;;;;5124995;28;19962;-68
2023/04/21 03:47:48;;;;;;;;;;;7.00;99.90;;;;;;5124611;28;19957;-69
2023/04/21 03:50:14;;;;;;;;;;;7.00;99.90;;;;;;5125231;28;19926;-70
2023/04/21 03:52:41;;;;;;;;;;;7.00;99.90;;;;;;5125178;28;19940;-68
2023/04/21 03:55:10;;;;;;;;;;;7.00;99.90;;;;;;5125066;28;20167;-69
2023/04/21 03:57:39;;;;;;;;;;;7.00;99.90;;;;;;5124668;28;19974;-68
2023/04/21 04:00:07;;;;;;;;;;;7.00;99.90;;;;;;5124895;28;19923;-67
2023/04/21 04:02:34;;;;;;;;;;;7.00;99.90;;;;;;5123942;28;19951;-71
2023/04/21 04:05:00;;;;;;;;;;;7.00;99.90;;;;;;5124956;28;19990;-68
2023/04/21 04:07:27;;;;;;;;;;;7.00;99.90;;;;;;5124584;28;19980;-69
2023/04/21 04:09:54;;;;;;;;;;;7.00;99.90;;;;;;5124681;28;20235;-70
2023/04/21 04:12:20;;;;;;;;;;;7.00;99.90;;;;;;5124669;28;19991;-69
2023/04/21 04:14:48;;;;;;;;;;;7.00;99.90;;;;;;5121565;28;19941;-68
2023/04/21 04:17:15;;;;;;;;;;;7.00;99.90;;;;;;5124333;28;19919;-68
2023/04/21 04:19:42;;;;;;;;;;;7.00;99.90;;;;;;5124480;28;19943;-68
2023/04/21 04:22:08;;;;;;;;;;;7.00;99.90;;;;;;5122909;28;20078;-68
2023/04/21 04:24:35;;;;;;;;;;;7.00;99.90;;;;;;5124186;28;19934;-70
2023/04/21 04:27:02;;;;;;;;;;;7.00;99.90;;;;;;5123837;28;19961;-70
2023/04/21 04:29:29;;;;;;;;;;;7.00;99.90;;;;;;5124450;28;19957;-69
2023/04/21 04:31:57;;;;;;;;;;;7.00;99.90;;;;;;5124246;28;20230;-68
2023/04/21 04:34:24;;;;;;;;;;;7.00;99.90;;;;;;5123709;28;19961;-68
2023/04/21 04:36:50;;;;;;;;;;;7.00;99.90;;;;;;5123905;28;19983;-67
2023/04/21 04:39:17;;;;;;;;;;;7.00;99.90;;;;;;5124155;28;19926;-71
2023/04/21 04:41:43;;;;;;;;;;;7.00;99.90;;;;;;5124103;28;19951;-68
2023/04/21 04:44:10;;;;;;;;;;;7.00;99.90;;;;;;5123670;28;19959;-71
2023/04/21 04:46:38;;;;;;;;;;;7.00;99.90;;;;;;5123808;28;19955;-69
2023/04/21 04:49:06;;;;;;;;;;;7.00;99.90;;;;;;5124196;28;19920;-68
2023/04/21 04:51:32;;;;;;;;;;;7.10;99.90;;;;;;5124184;28;19920;-69
2023/04/21 04:53:59;;;;;;;;;;;7.20;99.90;;;;;;5123566;28;20269;-70
2023/04/21 04:56:26;;;;;;;;;;;7.20;99.90;;;;;;5123216;28;20208;-70
2023/04/21 04:58:53;;;;;;;;;;;7.20;99.90;;;;;;5124088;28;19920;-69
2023/04/21 05:01:19;;;;;;;;;;;7.30;99.90;;;;;;5123908;28;19970;-68
2023/04/21 05:03:46;;;;;;;;;;;7.40;99.90;;;;;;5123979;28;19920;-68
2023/04/21 05:06:14;;;;;;;;;;;7.40;99.90;;;;;;5122825;28;19942;-68
2023/04/21 05:08:41;;;;;;;;;;;7.50;99.90;;;;;;5117085;28;20126;-69
2023/04/21 05:11:07;;;;;;;;;;;7.50;99.90;;;;;;5121200;28;19982;-70
2023/04/21 05:13:34;;;;;;;;;;;7.60;99.90;;;;;;5101848;28;19955;-68
2023/04/21 05:16:01;;;;;;;;;;;7.60;99.90;;;;;;5107534;28;19979;-69
2023/04/21 05:18:28;;;;;;;;;;;7.60;99.90;;;;;;5107633;28;19920;-68
2023/04/21 05:20:55;;;;;;;;;;;7.70;99.90;;;;;;5107613;28;19947;-69
2023/04/21 05:23:23;;;;;;;;;;;7.70;99.90;;;;;;5107107;28;19958;-68
2023/04/21 05:25:49;;;;;;;;;;;7.80;99.90;;;;;;5107104;28;19927;-68
2023/04/21 05:28:16;;;;;;;;;;;7.90;99.90;;;;;;5107302;28;19951;-69
2023/04/21 05:30:43;;;;;;;;;;;7.90;99.90;;;;;;5107397;28;19951;-67
2023/04/21 05:33:09;;;;;;;;;;;7.90;99.90;;;;;;5107552;28;19987;-69
2023/04/21 05:35:36;;;;;;;;;;;7.90;99.90;;;;;;5103880;28;19983;-67
2023/04/21 05:38:02;;;;;;;;;;;7.90;99.90;;;;;;5108592;28;19992;-69
2023/04/21 05:40:30;;;;;;;;;;;7.90;99.90;;;;;;5107298;28;19959;-68
2023/04/21 05:42:57;;;;;;;;;;;7.90;99.90;;;;;;5107440;28;19920;-71
2023/04/21 05:45:24;;;;;;;;;;;8.00;99.90;;;;;;5106751;28;19958;-71
2023/04/21 05:47:51;;;;;;;;;;;8.00;99.90;;;;;;5106463;28;20212;-70
2023/04/21 05:50:17;;;;;;;;;;;8.00;99.90;;;;;;5104198;28;19920;-69
2023/04/21 05:52:44;;;;;;;;;;;8.10;99.90;;;;;;5107096;28;19999;-71
2023/04/21 05:55:11;;;;;;;;;;;8.10;99.90;;;;;;5107041;28;20169;-69
2023/04/21 05:57:39;;;;;;;;;;;8.10;99.90;;;;;;5107079;28;19987;-70
2023/04/21 06:00:06;;;;;;;;;;;8.10;99.90;;;;;;5106939;28;19958;-70
2023/04/21 06:02:33;;;;;;;;;;;8.20;99.90;;;;;;5117498;28;19987;-70
2023/04/21 06:04:59;;;;;;;;;;;8.10;99.90;;;;;;5126374;28;19982;-68
2023/04/21 06:07:26;;;;;;;;;;;8.20;99.90;;;;;;5126794;28;20225;-70
2023/04/21 06:09:53;;;;;;;;;;;8.20;99.90;;;;;;5127102;28;19982;-70
2023/04/21 06:12:19;;;;;;;;;;;8.20;99.90;;;;;;5127253;28;19991;-68
2023/04/21 06:14:47;;;;;;;;;;;8.20;99.90;;;;;;5127094;28;19923;-70
2023/04/21 06:17:16;;;;;;;;;;;8.20;99.90;;;;;;5106431;28;19926;-68
2023/04/21 06:19:42;;;;;;;;;;;8.20;99.90;;;;;;5106549;28;19983;-68
2023/04/21 06:22:09;;;;;;;;;;;8.20;99.90;;;;;;5122615;28;19920;-69
2023/04/21 06:24:35;;;;;;;;;;;8.30;99.90;;;;;;5125557;28;19987;-68
2023/04/21 06:27:03;;;;;;;;;;;8.30;99.90;;;;;;5124194;28;19926;-68
2023/04/21 06:29:29;;;;;;;;;;;8.30;99.90;;;;;;5125755;28;19920;-68
2023/04/21 06:31:57;;;;;;;;;;;8.30;99.90;;;;;;5126784;27;19987;-68
2023/04/21 06:34:24;;;;;;;;;;;8.20;99.90;;;;;;5126119;28;20112;-70
2023/04/21 06:36:50;;;;;;;;;;;8.30;99.90;;;;;;5126020;28;19951;-69
2023/04/21 06:39:17;;;;;;;;;;;8.30;99.90;;;;;;5125598;28;19943;-70
2023/04/21 06:41:44;;;;;;;;;;;8.30;99.90;;;;;;5126438;28;19955;-73
2023/04/21 06:44:12;;;;;;;;;;;8.30;99.90;;;;;;5126186;28;19920;-69
2023/04/21 06:46:39;;;;;;;;;;;8.40;99.90;;;;;;5125400;28;20016;-68
2023/04/21 06:49:08;;;;;;;;;;;8.40;99.90;;;;;;5125698;28;19995;-69
2023/04/21 06:51:36;;;;;;;;;;;8.40;99.90;;;;;;5126019;28;19926;-69
2023/04/21 06:54:03;;;;;;;;;;;8.50;99.90;;;;;;5126233;28;19987;-70
2023/04/21 06:56:30;;;;;;;;;;;8.50;99.90;;;;;;5125169;28;19969;-70
2023/04/21 06:58:57;;;;;;;;;;;8.60;99.90;;;;;;5125992;28;20115;-69
2023/04/21 07:01:23;;;;;;;;;;;8.60;99.90;;;;;;5126149;28;19987;-69
2023/04/21 07:03:50;;;;;;;;;;;8.60;99.90;;;;;;5125971;28;19920;-68
2023/04/21 07:06:18;;;;;;;;;;;8.70;99.90;;;;;;5125600;28;19941;-68
2023/04/21 07:08:45;;;;;;;;;;;8.80;99.90;;;;;;5125694;28;19983;-68
2023/04/21 07:11:12;;;;;;;;;;;8.80;99.90;;;;;;5126023;28;19920;-70
2023/04/21 07:13:39;;;;;;;;;;;8.90;99.90;;;;;;5125812;28;19926;-68
2023/04/21 07:16:05;;;;;;;;;;;8.90;99.90;;;;;;5125173;27;19951;-70
2023/04/21 07:18:33;;;;;;;;;;;9.00;99.90;;;;;;5125832;28;19967;-69
2023/04/21 07:21:00;;;;;;;;;;;9.10;99.90;;;;;;5125323;28;20154;-70
2023/04/21 07:23:28;;;;;;;;;;;9.10;99.90;;;;;;5125605;28;20250;-70
2023/04/21 07:25:54;;;;;;;;;;;9.20;99.90;;;;;;5124714;28;19979;-69
2023/04/21 07:28:21;;;;;;;;;;;9.30;99.90;;;;;;5117073;28;20101;-70
2023/04/21 07:30:48;;;;;;;;;;;9.40;99.90;;;;;;5113013;28;19949;-70
2023/04/21 07:33:15;;;;;;;;;;;9.40;99.90;;;;;;5125351;28;19955;-68
2023/04/21 07:35:41;;;;;;;;;;;9.40;99.90;;;;;;5124624;28;19957;-69
2023/04/21 07:38:08;;;;;;;;;;;9.50;99.90;;;;;;5124853;27;19951;-68
2023/04/21 07:40:36;;;;;;;;;;;9.50;99.90;;;;;;5109168;28;19992;-68
2023/04/21 07:43:02;;;;;;;;;;;9.60;99.90;;;;;;5105102;28;19926;-70
2023/04/21 07:45:29;;;;;;;;;;;9.70;99.90;;;;;;5108597;28;19959;-69
2023/04/21 07:47:56;;;;;;;;;;;9.70;99.90;;;;;;5124558;28;20223;-69
2023/04/21 07:50:22;;;;;;;;;;;9.90;99.90;;;;;;5122869;28;19951;-70
2023/04/21 07:52:49;;;;;;;;;;;9.90;99.90;;;;;;5125322;28;19920;-69
2023/04/21 07:55:15;;;;;;;;;;;10.00;99.90;;;;;;5124884;28;19928;-69
2023/04/21 07:57:44;;;;;;;;;;;10.00;99.90;;;;;;5124666;28;19987;-69
2023/04/21 08:00:11;;;;;;;;;;;10.10;99.90;;;;;;5125894;28;19979;-69
2023/04/21 08:02:37;;;;;;;;;;;10.20;99.90;;;;;;5125040;28;20207;-68
2023/04/21 08:05:04;;;;;;;;;;;10.20;99.90;;;;;;5124750;28;19920;-69
2023/04/21 08:07:31;;;;;;;;;;;10.30;99.90;;;;;;5123534;28;19920;-68
2023/04/21 08:09:58;;;;;;;;;;;10.40;99.90;;;;;;5123991;28;19963;-69
2023/04/21 08:12:25;;;;;;;;;;;10.50;99.90;;;;;;5121710;28;19924;-69
2023/04/21 08:14:53;;;;;;;;;;;10.50;99.90;;;;;;5123903;28;19926;-69
2023/04/21 08:17:20;;;;;;;;;;;10.60;99.90;;;;;;5123795;28;19958;-69
2023/04/21 08:19:46;;;;;;;;;;;10.60;99.90;;;;;;5114996;28;19980;-69
2023/04/21 08:22:13;;;;;;;;;;;10.60;99.90;;;;;;5109174;28;19919;-69
2023/04/21 08:24:39;;;;;;;;;;;10.70;99.90;;;;;;5123952;28;19983;-71
2023/04/21 08:27:06;;;;;;;;;;;10.80;99.90;;;;;;5123666;28;19920;-69
2023/04/21 08:29:33;;;;;;;;;;;10.80;99.90;;;;;;5124487;28;19983;-68
2023/04/21 08:32:01;;;;;;;;;;;10.90;99.90;;;;;;5123880;28;19979;-70
2023/04/21 08:34:27;;;;;;;;;;;11.10;99.90;;;;;;5124428;28;19926;-70
2023/04/21 08:36:54;;;;;;;;;;;11.10;99.90;;;;;;5123643;28;19955;-69
2023/04/21 08:39:21;;;;;;;;;;;11.30;99.90;;;;;;5123494;28;19920;-69
2023/04/21 08:41:47;;;;;;;;;;;11.30;99.90;;;;;;5104267;28;19995;-68
2023/04/21 08:44:14;;;;;;;;;;;11.40;99.90;;;;;;5123652;28;20089;-69
2023/04/21 08:46:42;;;;;;;;;;;11.50;99.90;;;;;;5121423;28;19932;-69
2023/04/21 08:49:11;;;;;;;;;;;11.50;99.90;;;;;;5103678;28;19987;-69
2023/04/21 08:51:38;;;;;;;;;;;11.60;99.90;;;;;;5103758;28;19920;-69
2023/04/21 08:54:05;;;;;;;;;;;11.80;99.90;;;;;;5112251;28;19919;-70
2023/04/21 08:56:31;;;;;;;;;;;11.80;99.90;;;;;;5123085;28;19926;-69
2023/04/21 08:58:58;;;;;;;;;;;11.90;99.90;;;;;;5123806;28;19999;-69
2023/04/21 09:01:25;;;;;;;;;;;12.00;99.90;;;;;;5123956;28;19926;-68
2023/04/21 09:03:51;;;;;;;;;;;12.00;99.90;;;;;;5122986;28;20268;-68
2023/04/21 09:06:19;;;;;;;;;;;12.10;99.90;;;;;;5123024;28;19920;-69
2023/04/21 09:08:54;;;;;;;;;;;12.10;99.90;;;;;;5123958;28;19919;-70
2023/04/21 09:11:21;;;;;;;;;;;12.20;99.90;;;;;;5123517;28;19919;-70
2023/04/21 09:13:48;;;;;;;;;;;12.20;99.90;;;;;;5123783;28;19926;-70
2023/04/21 09:16:16;;;;;;;;;;;12.20;99.90;;;;;;5123093;28;19986;-70
2023/04/21 09:18:43;;;;;;;;;;;12.20;99.90;;;;;;5121600;28;19958;-68
2023/04/21 09:21:10;;;;;;;;;;;12.20;99.90;;;;;;5123800;28;20141;-69
2023/04/21 09:23:42;;;;;;;;;;;12.20;99.90;;;;;;5123875;28;19988;-68
2023/04/21 09:26:09;;;;;;;;;;;12.30;99.90;;;;;;5123153;28;20199;-70
2023/04/21 09:28:36;;;;;;;;;;;12.40;99.90;;;;;;5122744;28;20231;-68
2023/04/21 09:31:03;;;;;;;;;;;12.50;99.90;;;;;;5121924;28;19927;-69
2023/04/21 09:33:32;;;;;;;;;;;12.60;99.90;;;;;;5123937;28;19983;-69
2023/04/21 09:36:00;;;;;;;;;;;12.70;99.90;;;;;;5123170;28;19919;-69
2023/04/21 09:38:27;;;;;;;;;;;12.90;99.90;;;;;;5123478;28;19926;-68
2023/04/21 09:40:58;;;;;;;;;;;13.00;99.90;;;;;;5123273;28;19995;-70
2023/04/21 09:43:25;;;;;;;;;;;13.20;99.90;;;;;;5123457;28;20033;-69
2023/04/21 09:45:53;;;;;;;;;;;13.30;99.90;;;;;;5123489;28;19919;-69
2023/04/21 09:48:21;;;;;;;;;;;13.40;99.90;;;;;;5123180;28;19926;-68
2023/04/21 09:50:48;;;;;;;;;;;13.60;99.90;;;;;;5118998;28;19920;-69
2023/04/21 09:53:15;;;;;;;;;;;13.70;99.90;;;;;;5123570;28;20235;-68
2023/04/21 09:55:42;;;;;;;;;;;13.90;99.90;;;;;;5123403;28;20142;-68
2023/04/21 09:58:12;;;;;;;;;;;14.00;99.90;;;;;;5123325;28;19942;-69
2023/04/21 10:00:39;;;;;;;;;;;14.10;99.90;;;;;;5113502;28;19955;-69
2023/04/21 10:03:10;;;;;;;;;;;14.30;99.90;;;;;;5106790;28;19920;-70
2023/04/21 10:05:37;;;;;;;;;;;14.50;99.90;;;;;;5107115;28;20096;-69
2023/04/21 10:08:05;;;;;;;;;;;14.60;99.90;;;;;;5106806;28;19926;-68
2023/04/21 10:10:34;;;;;;;;;;;14.60;99.90;;;;;;5118560;28;19977;-69
2023/04/21 10:13:01;;;;;;;;;;;14.70;99.90;;;;;;5125375;28;19926;-69
2023/04/21 10:15:34;;;;;;;;;;;14.70;99.90;;;;;;5127018;28;19920;-70
2023/04/21 10:18:14;;;;;;;;;;;14.70;99.90;;;;;;5126606;28;19924;-68
2023/04/21 10:20:54;;;;;;;;;;;14.60;99.90;;;;;;5124542;28;19928;-68
2023/04/21 10:23:31;;;;;;;;;;;14.50;99.90;;;;;;5127063;28;20172;-69
2023/04/21 10:26:05;;;;;;;;;;;14.60;99.90;;;;;;5126362;28;19934;-68
2023/04/21 10:28:49;;;;;;;;;;;14.80;99.90;;;;;;5126476;28;20208;-68
2023/04/21 10:31:19;;;;;;;;;;;15.00;99.90;;;;;;5116010;28;20212;-66
2023/04/21 10:34:00;;;;;;;;;;;15.20;99.90;;;;;;5126498;28;19926;-69
2023/04/21 10:36:27;;;;;;;;;;;15.20;99.90;;;;;;5124968;28;19924;-68
2023/04/21 10:38:55;;;;;;;;;;;15.40;99.90;;;;;;5126751;28;19962;-68
2023/04/21 10:41:28;;;;;;;;;;;15.50;99.90;;;;;;5126427;28;19982;-68
2023/04/21 10:43:57;;;;;;;;;;;15.60;99.90;;;;;;5109280;28;20337;-69
2023/04/21 10:46:32;;;;;;;;;;;15.70;99.90;;;;;;5105226;28;19990;-70
2023/04/21 10:49:04;;;;;;;;;;;15.90;99.90;;;;;;5107730;28;19920;-67
2023/04/21 10:51:31;;;;;;;;;;;16.20;99.90;;;;;;5114286;28;19920;-68
2023/04/21 10:53:58;;;;;;;;;;;16.30;99.90;;;;;;5124678;28;19994;-68
2023/04/21 10:56:25;;;;;;;;;;;16.40;99.90;;;;;;5124405;28;19920;-70
2023/04/21 10:58:52;;;;;;;;;;;16.40;99.90;;;;;;5126348;28;19961;-71
2023/04/21 11:01:19;;;;;;;;;;;16.50;99.90;;;;;;5125073;28;19942;-69
2023/04/21 11:03:47;;;;;;;;;;;16.60;99.90;;;;;;5126287;28;19920;-69
2023/04/21 11:06:17;;;;;;;;;;;16.80;99.90;;;;;;5125710;28;20170;-70
2023/04/21 11:08:56;;;;;;;;;;;16.90;99.90;;;;;;5125765;28;19961;-69
2023/04/21 11:11:23;;;;;;;;;;;17.00;99.90;;;;;;5125577;28;20263;-69
2023/04/21 11:13:52;;;;;;;;;;;17.00;99.90;;;;;;5126042;28;19961;-69
2023/04/21 11:16:19;;;;;;;;;;;17.00;99.90;;;;;;5108020;28;20230;-70
2023/04/21 11:18:47;;;;;;;;;;;17.20;99.90;;;;;;5107990;28;20115;-69
2023/04/21 11:21:20;;;;;;;;;;;17.30;99.90;;;;;;5102745;28;19955;-69
2023/04/21 11:23:50;;;;;;;;;;;17.60;99.90;;;;;;5105600;28;19975;-68
2023/04/21 11:26:18;;;;;;;;;;;17.80;99.90;;;;;;5104953;28;19926;-65
2023/04/21 11:28:47;;;;;;;;;;;18.00;99.90;;;;;;5105355;28;20097;-65
2023/04/21 11:31:15;;;;;;;;;;;18.10;99.90;;;;;;5102881;28;19920;-65
2023/04/21 11:33:42;;;;;;;;;;;18.30;99.90;;;;;;5105291;28;19987;-65
2023/04/21 11:36:09;;;;;;;;;;;18.50;99.90;;;;;;5104224;28;19991;-66
2023/04/21 11:38:37;;;;;;;;;;;18.70;99.90;;;;;;5104989;28;19926;-65
2023/04/21 11:41:04;;;;;;;;;;;19.00;99.90;;;;;;5102368;28;19983;-67
2023/04/21 11:43:30;;;;;;;;;;;19.30;99.90;;;;;;5102134;28;19979;-65
2023/04/21 11:46:10;;;;;;;;;;;19.50;99.90;;;;;;5104261;28;19935;-65
2023/04/21 11:48:37;;;;;;;;;;;19.50;99.90;;;;;;5104455;28;19920;-65
2023/04/21 11:51:04;;;;;;;;;;;19.50;99.90;;;;;;5104387;28;20168;-65
2023/04/21 11:53:32;;;;;;;;;;;19.60;99.90;;;;;;5102258;28;19920;-65
2023/04/21 11:55:59;;;;;;;;;;;19.50;99.90;;;;;;5103746;28;19983;-65
2023/04/21 11:58:26;;;;;;;;;;;19.50;99.90;;;;;;5104545;28;19919;-67
2023/04/21 12:00:52;;;;;;;;;;;19.40;99.90;;;;;;5103584;28;19919;-66
2023/04/21 12:03:19;;;;;;;;;;;19.20;99.90;;;;;;5104569;28;19995;-66
2023/04/21 12:05:46;;;;;;;;;;;19.00;99.90;;;;;;5103938;28;20161;-66
2023/04/21 12:08:13;;;;;;;;;;;19.10;99.90;;;;;;5117355;28;19983;-65
2023/04/21 12:10:45;;;;;;;;;;;19.10;99.90;;;;;;5114952;28;19920;-65
2023/04/21 12:13:12;;;;;;;;;;;19.10;99.90;;;;;;5104535;28;19984;-65
2023/04/21 12:15:39;;;;;;;;;;;19.20;99.90;;;;;;5104127;28;19983;-66
2023/04/21 12:18:12;;;;;;;;;;;19.30;99.90;;;;;;5104107;28;19987;-66
2023/04/21 12:20:38;;;;;;;;;;;19.20;99.90;;;;;;5121161;28;19958;-67
2023/04/21 12:23:05;;;;;;;;;;;19.20;99.90;;;;;;5122657;28;19920;-68
2023/04/21 12:25:32;;;;;;;;;;;19.20;99.90;;;;;;5124303;28;19958;-68
2023/04/21 12:28:00;;;;;;;;;;;19.20;99.90;;;;;;5124129;28;19920;-68
2023/04/21 12:30:26;;;;;;;;;;;19.40;99.90;;;;;;5124601;28;20118;-67
2023/04/21 12:32:54;;;;;;;;;;;19.60;99.90;;;;;;5124260;28;19962;-67
2023/04/21 12:35:21;;;;;;;;;;;19.90;99.90;;;;;;5124051;28;19920;-68
2023/04/21 12:37:48;;;;;;;;;;;20.30;99.90;;;;;;5103124;28;19920;-67
2023/04/21 12:40:14;;;;;;;;;;;20.40;99.90;;;;;;5104109;28;19926;-70
2023/04/21 12:42:41;;;;;;;;;;;20.30;99.90;;;;;;5103898;28;19978;-66
2023/04/21 12:45:10;;;;;;;;;;;20.20;99.90;;;;;;5109260;28;19983;-67
2023/04/21 12:47:36;;;;;;;;;;;20.00;99.90;;;;;;5120804;28;19919;-67
2023/04/21 12:50:03;;;;;;;;;;;19.70;99.90;;;;;;5103687;28;19955;-67
2023/04/21 12:52:30;;;;;;;;;;;19.70;99.90;;;;;;5103432;28;19920;-66
2023/04/21 12:54:56;;;;;;;;;;;19.80;99.90;;;;;;5103488;28;20279;-67
2023/04/21 12:57:23;;;;;;;;;;;20.10;99.90;;;;;;5103143;28;19963;-70
2023/04/21 12:59:50;;;;;;;;;;;20.20;99.90;;;;;;5103770;28;19962;-68
2023/04/21 13:02:17;;;;;;;;;;;20.40;99.90;;;;;;5103480;28;19967;-68
2023/04/21 13:04:44;;;;;;;;;;;20.70;99.90;;;;;;5103324;28;19920;-67
2023/04/21 13:07:11;;;;;;;;;;;21.10;99.90;;;;;;5102883;28;19950;-67
2023/04/21 13:09:38;;;;;;;;;;;21.50;99.90;;;;;;5103807;28;19951;-67
2023/04/21 13:12:04;;;;;;;;;;;21.60;99.90;;;;;;5103658;28;19920;-68
2023/04/21 13:14:31;;;;;;;;;;;21.70;99.90;;;;;;5103361;28;20184;-69
2023/04/21 13:16:58;;;;;;;;;;;21.90;99.90;;;;;;5102575;28;19927;-69
2023/04/21 13:19:27;;;;;;;;;;;22.20;99.90;;;;;;5103467;28;19983;-67
2023/04/21 13:21:55;;;;;;;;;;;22.50;99.90;;;;;;5100879;28;19920;-68
2023/04/21 13:24:21;;;;;;;;;;;22.40;99.90;;;;;;5103593;28;19920;-67
2023/04/21 13:26:48;;;;;;;;;;;22.10;99.90;;;;;;5102587;28;19960;-68
2023/04/21 13:29:15;;;;;;;;;;;22.20;99.90;;;;;;5103558;28;19928;-67
2023/04/21 13:31:42;;;;;;;;;;;22.30;99.90;;;;;;5103532;28;20397;-68
2023/04/21 13:34:09;;;;;;;;;;;22.50;99.90;;;;;;5103355;28;19920;-67
2023/04/21 13:36:37;;;;;;;;;;;22.30;99.90;;;;;;5106586;28;19934;-67
2023/04/21 13:39:04;;;;;;;;;;;21.90;99.90;;;;;;5107530;28;19926;-67
2023/04/21 13:41:31;;;;;;;;;;;21.70;99.90;;;;;;5107347;28;19987;-68
2023/04/21 13:43:57;;;;;;;;;;;21.70;99.90;;;;;;5106987;28;20211;-67
2023/04/21 13:46:24;;;;;;;;;;;21.80;99.90;;;;;;5106518;28;20257;-67
2023/04/21 13:48:50;;;;;;;;;;;22.00;99.90;;;;;;5106957;28;20212;-68
2023/04/21 13:51:17;;;;;;;;;;;21.90;99.90;;;;;;5107117;28;19962;-66
2023/04/21 13:53:45;;;;;;;;;;;21.60;99.90;;;;;;5107054;28;19983;-68
2023/04/21 13:56:12;;;;;;;;;;;21.40;99.90;;;;;;5106149;28;20222;-67
2023/04/21 13:58:39;;;;;;;;;;;21.20;99.90;;;;;;5107034;28;19920;-68
2023/04/21 14:01:05;;;;;;;;;;;21.20;99.90;;;;;;5106666;28;19983;-67
2023/04/21 14:03:32;;;;;;;;;;;21.70;99.90;;;;;;5106820;28;19990;-68
2023/04/21 14:05:59;;;;;;;;;;;21.80;99.90;;;;;;5106553;28;19920;-67
2023/04/21 14:08:25;;;;;;;;;;;21.50;99.90;;;;;;5106774;28;20158;-67
2023/04/21 14:10:53;;;;;;;;;;;21.20;99.90;;;;;;5106547;28;19956;-67
2023/04/21 14:13:20;;;;;;;;;;;21.20;99.90;;;;;;5106779;28;19920;-68
2023/04/21 14:15:46;;;;;;;;;;;21.40;99.90;;;;;;5106495;28;19979;-68
2023/04/21 14:18:13;;;;;;;;;;;21.80;99.90;;;;;;5106312;28;19979;-67
2023/04/21 14:20:40;;;;;;;;;;;22.20;99.90;;;;;;5103950;28;19987;-67
2023/04/21 14:23:06;;;;;;;;;;;22.40;99.90;;;;;;5106705;28;19927;-69
2023/04/21 14:25:33;;;;;;;;;;;22.60;99.90;;;;;;5106391;28;19920;-68